createdAt,value
2019-03-17T00:00:51.058Z,62.70
2019-03-17T00:03:20.103Z,62.90
2019-03-17T00:05:48.944Z,63.10
2019-03-17T00:08:17.716Z,63.00
2019-03-17T00:10:46.486Z,63.20
2019-03-17T00:13:17.610Z,63.10
2019-03-17T00:15:46.181Z,63.30
2019-03-17T00:18:15.299Z,63.00
2019-03-17T00:20:44.259Z,63.30
2019-03-17T00:23:13.374Z,62.90
2019-03-17T00:25:42.773Z,62.90
2019-03-17T00:28:11.609Z,62.90
2019-03-17T00:30:40.371Z,62.90
2019-03-17T00:33:09.436Z,62.70
2019-03-17T00:35:38.210Z,62.70
2019-03-17T00:38:06.983Z,62.70
2019-03-17T00:40:36.080Z,63.00
2019-03-17T00:43:04.930Z,62.70
2019-03-17T00:45:33.692Z,63.10
2019-03-17T00:48:02.814Z,63.20
2019-03-17T00:50:31.568Z,62.90
2019-03-17T00:53:00.322Z,63.20
2019-03-17T00:55:29.439Z,63.10
2019-03-17T00:57:59.756Z,63.60
2019-03-17T01:00:29.544Z,63.50
2019-03-17T01:02:58.311Z,63.80
2019-03-17T01:05:27.459Z,64.10
2019-03-17T01:07:56.918Z,64.30
2019-03-17T01:10:25.957Z,64.30
2019-03-17T01:12:55.062Z,64.30
2019-03-17T01:15:23.911Z,64.30
2019-03-17T01:17:52.751Z,64.30
2019-03-17T01:20:21.835Z,64.20
2019-03-17T01:22:50.601Z,64.10
2019-03-17T01:25:19.357Z,64.50
2019-03-17T01:27:48.705Z,64.90
2019-03-17T01:30:17.474Z,65.10
2019-03-17T01:32:46.263Z,65.10
2019-03-17T01:35:15.002Z,65.00
2019-03-17T01:37:43.796Z,64.70
2019-03-17T01:40:13.009Z,64.90
2019-03-17T01:42:41.824Z,65.20
2019-03-17T01:45:10.923Z,65.30
2019-03-17T01:47:39.782Z,65.20
2019-03-17T01:50:08.903Z,65.30
2019-03-17T01:52:38.007Z,65.40
2019-03-17T01:55:06.933Z,65.30
2019-03-17T01:57:35.999Z,65.60
2019-03-17T02:00:06.113Z,65.50
2019-03-17T02:02:34.891Z,65.40
2019-03-17T02:05:03.768Z,65.20
2019-03-17T02:07:32.527Z,65.00
2019-03-17T02:10:01.636Z,65.20
2019-03-17T02:12:30.423Z,65.00
2019-03-17T02:14:59.199Z,65.10
2019-03-17T02:17:28.049Z,64.90
2019-03-17T02:19:57.091Z,64.70
2019-03-17T02:22:25.948Z,64.70
2019-03-17T02:24:54.717Z,65.10
2019-03-17T02:27:23.474Z,65.00
2019-03-17T02:29:52.346Z,64.60
2019-03-17T02:32:21.107Z,65.00
2019-03-17T02:34:50.374Z,64.60
2019-03-17T02:37:19.153Z,65.20
2019-03-17T02:39:48.280Z,65.30
2019-03-17T02:42:17.452Z,65.30
2019-03-17T02:44:46.619Z,65.40
2019-03-17T02:47:15.491Z,65.60
2019-03-17T02:49:44.292Z,65.80
2019-03-17T02:52:13.663Z,66.10
2019-03-17T02:54:42.446Z,66.10
2019-03-17T02:57:11.222Z,65.60
2019-03-17T02:59:39.995Z,65.70
2019-03-17T03:02:08.781Z,65.90
2019-03-17T03:04:37.615Z,65.90
2019-03-17T03:07:06.381Z,65.80
2019-03-17T03:09:35.192Z,65.40
2019-03-17T03:12:04.366Z,65.10
2019-03-17T03:14:33.154Z,65.00
2019-03-17T03:17:01.919Z,65.10
2019-03-17T03:19:30.748Z,65.30
2019-03-17T03:21:59.833Z,65.50
2019-03-17T03:24:28.624Z,65.50
2019-03-17T03:26:57.790Z,65.60
2019-03-17T03:29:27.491Z,65.60
2019-03-17T03:31:56.821Z,65.40
2019-03-17T03:34:25.841Z,66.50
2019-03-17T03:36:55.103Z,65.40
2019-03-17T03:39:24.199Z,65.80
2019-03-17T03:41:53.329Z,65.50
2019-03-17T03:44:22.141Z,65.40
2019-03-17T03:46:51.253Z,65.40
2019-03-17T03:49:20.042Z,65.50
2019-03-17T03:51:49.083Z,65.40
2019-03-17T03:54:17.858Z,65.50
2019-03-17T03:56:46.656Z,65.20
2019-03-17T03:59:15.736Z,65.00
2019-03-17T04:01:44.573Z,65.20
2019-03-17T04:04:13.415Z,65.60
2019-03-17T04:06:42.493Z,65.60
2019-03-17T04:09:11.256Z,65.70
2019-03-17T04:11:40.403Z,65.50
2019-03-17T04:14:09.791Z,65.30
2019-03-17T04:16:38.590Z,65.60
2019-03-17T04:19:07.769Z,65.60
2019-03-17T04:21:36.542Z,65.80
2019-03-17T04:24:05.490Z,65.80
2019-03-17T04:26:34.528Z,65.90
2019-03-17T04:29:03.289Z,66.00
2019-03-17T04:31:32.408Z,66.10
2019-03-17T04:34:01.194Z,66.00
2019-03-17T04:36:40.118Z,65.70
2019-03-17T04:39:00.729Z,65.70
2019-03-17T04:41:29.883Z,65.60
2019-03-17T04:43:58.654Z,65.60
2019-03-17T04:46:27.467Z,65.70
2019-03-17T04:48:56.295Z,65.70
2019-03-17T04:51:25.235Z,65.20
2019-03-17T04:53:54.391Z,65.70
2019-03-17T04:56:23.203Z,66.00
2019-03-17T04:58:51.964Z,66.20
2019-03-17T05:01:20.756Z,66.00
2019-03-17T05:03:49.541Z,65.60
2019-03-17T05:06:18.386Z,66.00
2019-03-17T05:08:47.160Z,66.00
2019-03-17T05:11:15.946Z,65.90
2019-03-17T05:13:44.707Z,65.00
2019-03-17T05:16:13.483Z,65.00
2019-03-17T05:18:42.327Z,65.40
2019-03-17T05:21:11.209Z,65.40
2019-03-17T05:23:40.545Z,65.50
2019-03-17T05:26:09.337Z,65.20
2019-03-17T05:28:38.189Z,65.10
2019-03-17T05:31:07.330Z,64.90
2019-03-17T05:33:36.099Z,64.90
2019-03-17T05:36:04.959Z,64.80
2019-03-17T05:38:34.003Z,64.80
2019-03-17T05:41:02.791Z,64.80
2019-03-17T05:43:31.562Z,64.50
2019-03-17T05:46:00.358Z,64.20
2019-03-17T05:48:29.490Z,64.50
2019-03-17T05:50:58.269Z,64.30
2019-03-17T05:53:27.536Z,64.30
2019-03-17T05:55:56.701Z,64.50
2019-03-17T05:58:25.555Z,64.60
2019-03-17T06:00:54.719Z,64.50
2019-03-17T06:03:23.498Z,65.20
2019-03-17T06:05:52.266Z,64.50
2019-03-17T06:08:21.408Z,64.80
2019-03-17T06:10:50.204Z,65.70
2019-03-17T06:13:19.264Z,64.70
2019-03-17T06:15:48.105Z,64.30
2019-03-17T06:18:17.463Z,64.60
2019-03-17T06:20:46.400Z,64.40
2019-03-17T06:23:15.569Z,64.00
2019-03-17T06:25:45.071Z,64.10
2019-03-17T06:28:13.914Z,64.30
2019-03-17T06:30:42.713Z,64.50
2019-03-17T06:33:11.831Z,64.40
2019-03-17T06:35:40.853Z,64.70
2019-03-17T06:38:09.637Z,64.50
2019-03-17T06:40:38.433Z,64.50
2019-03-17T06:43:07.231Z,64.50
2019-03-17T06:45:36.122Z,63.90
2019-03-17T06:48:05.284Z,64.10
2019-03-17T06:50:34.059Z,64.70
2019-03-17T06:53:03.108Z,64.50
2019-03-17T06:55:32.460Z,64.70
2019-03-17T06:58:01.309Z,64.50
2019-03-17T07:00:30.108Z,64.20
2019-03-17T07:02:58.928Z,64.60
2019-03-17T07:05:27.730Z,64.30
2019-03-17T07:07:56.806Z,63.80
2019-03-17T07:10:25.583Z,64.00
2019-03-17T07:12:54.385Z,63.80
2019-03-17T07:15:23.620Z,63.90
2019-03-17T07:17:52.648Z,63.80
2019-03-17T07:20:21.730Z,63.70
2019-03-17T07:22:50.778Z,63.80
2019-03-17T07:25:19.816Z,64.30
2019-03-17T07:27:48.580Z,64.50
2019-03-17T07:30:18.144Z,65.30
2019-03-17T07:32:46.946Z,63.80
2019-03-17T07:35:15.728Z,64.70
2019-03-17T07:37:56.103Z,63.70
2019-03-17T07:40:15.136Z,63.70
2019-03-17T07:42:44.554Z,63.20
2019-03-17T07:45:13.739Z,63.20
2019-03-17T07:47:42.787Z,63.40
2019-03-17T07:50:11.620Z,63.00
2019-03-17T07:52:40.679Z,63.50
2019-03-17T07:55:09.663Z,63.70
2019-03-17T07:57:38.445Z,63.30
2019-03-17T08:00:08.671Z,63.40
2019-03-17T08:02:38.020Z,64.30
2019-03-17T08:05:07.058Z,63.80
2019-03-17T08:07:35.852Z,64.00
2019-03-17T08:10:05.225Z,63.50
2019-03-17T08:12:34.597Z,64.00
2019-03-17T08:15:03.397Z,64.40
2019-03-17T08:17:32.184Z,65.00
2019-03-17T08:20:00.957Z,65.80
2019-03-17T08:22:30.101Z,65.80
2019-03-17T08:24:59.102Z,66.80
2019-03-17T08:27:27.877Z,66.60
2019-03-17T08:29:57.065Z,66.90
2019-03-17T08:32:26.446Z,67.10
2019-03-17T08:34:55.221Z,68.40
2019-03-17T08:37:24.020Z,68.30
2019-03-17T08:39:53.299Z,68.70
2019-03-17T08:42:22.090Z,68.10
2019-03-17T08:44:50.874Z,68.30
2019-03-17T08:47:22.420Z,68.70
2019-03-17T08:49:50.407Z,67.90
2019-03-17T08:52:19.539Z,67.90
2019-03-17T08:54:48.906Z,68.10
2019-03-17T08:57:17.688Z,68.60
2019-03-17T08:59:46.471Z,68.40
2019-03-17T09:02:15.543Z,67.90
2019-03-17T09:04:44.343Z,67.50
2019-03-17T09:07:13.492Z,68.00
2019-03-17T09:09:42.671Z,68.60
2019-03-17T09:12:11.776Z,69.30
2019-03-17T09:14:40.549Z,68.90
2019-03-17T09:17:14.263Z,68.40
2019-03-17T09:19:40.122Z,68.00
2019-03-17T09:22:08.917Z,68.60
2019-03-17T09:24:37.999Z,69.30
2019-03-17T09:27:06.763Z,70.00
2019-03-17T09:29:35.593Z,70.80
2019-03-17T09:32:04.476Z,71.20
2019-03-17T09:34:33.244Z,72.40
2019-03-17T09:37:02.621Z,73.40
2019-03-17T09:39:31.668Z,72.80
2019-03-17T09:42:00.711Z,72.20
2019-03-17T09:44:29.515Z,72.70
2019-03-17T09:46:58.290Z,73.20
2019-03-17T09:49:27.087Z,72.60
2019-03-17T09:51:56.158Z,73.20
2019-03-17T09:54:25.481Z,73.60
2019-03-17T09:56:54.884Z,74.30
2019-03-17T09:59:24.192Z,74.40
2019-03-17T10:01:53.027Z,74.40
2019-03-17T10:04:22.231Z,74.50
2019-03-17T10:06:51.674Z,75.10
2019-03-17T10:09:20.852Z,75.30
2019-03-17T10:11:50.099Z,76.20
2019-03-17T10:14:19.251Z,71.50
2019-03-17T10:16:48.652Z,71.60
2019-03-17T10:19:17.743Z,74.90
2019-03-17T10:21:46.795Z,76.00
2019-03-17T10:24:15.844Z,77.90
2019-03-17T10:26:44.594Z,78.40
2019-03-17T10:29:14.037Z,78.80
2019-03-17T10:31:43.757Z,81.40
2019-03-17T10:34:12.870Z,80.90
2019-03-17T10:36:41.904Z,80.90
2019-03-17T10:39:12.758Z,82.10
2019-03-17T10:41:41.682Z,82.00
2019-03-17T10:44:10.798Z,80.90
2019-03-17T10:46:39.855Z,80.60
2019-03-17T10:49:08.722Z,80.60
2019-03-17T10:51:37.483Z,80.80
2019-03-17T10:54:06.254Z,80.80
2019-03-17T10:56:36.227Z,82.00
2019-03-17T10:59:04.999Z,80.80
2019-03-17T11:01:33.860Z,81.10
2019-03-17T11:04:02.618Z,80.70
2019-03-17T11:06:31.384Z,80.40
2019-03-17T11:09:00.687Z,79.40
2019-03-17T11:11:29.963Z,80.30
2019-03-17T11:13:59.080Z,78.40
2019-03-17T11:16:27.987Z,78.90
2019-03-17T11:18:57.527Z,79.60
2019-03-17T11:21:26.688Z,79.30
2019-03-17T11:23:56.178Z,78.70
2019-03-17T11:26:25.241Z,78.00
2019-03-17T11:28:54.307Z,78.50
2019-03-17T11:31:23.428Z,78.10
2019-03-17T11:33:52.256Z,77.00
2019-03-17T11:36:21.027Z,77.00
2019-03-17T11:38:50.440Z,75.10
2019-03-17T11:41:19.516Z,75.40
2019-03-17T11:43:48.571Z,74.60
2019-03-17T11:46:18.033Z,74.50
2019-03-17T11:48:47.174Z,75.10
2019-03-17T11:51:16.294Z,74.70
2019-03-17T11:53:45.458Z,74.30
2019-03-17T11:56:14.621Z,75.00
2019-03-17T11:58:43.687Z,74.30
2019-03-17T12:01:12.486Z,74.40
2019-03-17T12:03:41.261Z,74.50
2019-03-17T12:06:10.396Z,75.50
2019-03-17T12:08:39.684Z,73.60
2019-03-17T12:11:08.731Z,73.00
2019-03-17T12:13:37.519Z,72.80
2019-03-17T12:16:06.284Z,72.60
2019-03-17T12:18:35.120Z,72.90
2019-03-17T12:21:04.237Z,71.20
2019-03-17T12:23:33.296Z,71.30
2019-03-17T12:26:02.432Z,71.20
2019-03-17T12:28:31.353Z,69.30
2019-03-17T12:31:02.922Z,68.10
2019-03-17T12:33:32.002Z,66.80
2019-03-17T12:36:00.870Z,67.00
2019-03-17T12:38:30.137Z,67.30
2019-03-17T12:40:59.246Z,64.80
2019-03-17T12:43:28.174Z,65.90
2019-03-17T12:45:57.008Z,65.10
2019-03-17T12:48:26.658Z,66.40
2019-03-17T12:50:55.845Z,65.90
2019-03-17T12:53:25.037Z,64.10
2019-03-17T12:55:54.133Z,63.40
2019-03-17T12:58:23.516Z,65.10
2019-03-17T13:00:52.612Z,64.80
2019-03-17T13:03:21.920Z,63.70
2019-03-17T13:05:50.780Z,63.20
2019-03-17T13:08:19.814Z,63.30
2019-03-17T13:10:49.316Z,63.70
2019-03-17T13:13:18.108Z,62.50
2019-03-17T13:15:47.508Z,63.10
2019-03-17T13:18:16.592Z,63.70
2019-03-17T13:20:45.695Z,61.40
2019-03-17T13:23:14.791Z,61.40
2019-03-17T13:25:43.912Z,60.80
2019-03-17T13:28:13.396Z,61.20
2019-03-17T13:30:42.524Z,61.30
2019-03-17T13:33:11.578Z,60.90
2019-03-17T13:35:59.607Z,61.40
2019-03-17T13:38:29.148Z,60.80
2019-03-17T13:40:58.278Z,58.90
2019-03-17T13:43:27.707Z,60.20
2019-03-17T13:45:56.746Z,59.90
2019-03-17T13:48:25.516Z,59.30
2019-03-17T13:50:54.667Z,58.60
2019-03-17T13:53:23.533Z,59.40
2019-03-17T13:55:53.253Z,60.50
2019-03-17T13:58:22.706Z,60.50
2019-03-17T14:00:51.486Z,60.00
2019-03-17T14:03:20.965Z,60.20
2019-03-17T14:05:49.730Z,61.10
2019-03-17T14:08:18.531Z,60.60
2019-03-17T14:10:47.287Z,60.90
2019-03-17T14:13:16.355Z,60.70
2019-03-17T14:15:45.489Z,61.10
2019-03-17T14:18:14.301Z,60.70
2019-03-17T14:20:43.953Z,60.90
2019-03-17T14:23:13.356Z,61.60
2019-03-17T14:25:42.476Z,61.50
2019-03-17T14:28:11.667Z,61.70
2019-03-17T14:30:40.562Z,62.30
2019-03-17T14:33:09.688Z,62.80
2019-03-17T14:35:39.312Z,61.20
2019-03-17T14:38:08.530Z,62.80
2019-03-17T14:40:37.294Z,61.30
2019-03-17T14:43:06.422Z,61.20
2019-03-17T14:45:35.606Z,61.80
2019-03-17T14:48:04.579Z,60.80
2019-03-17T14:50:33.694Z,61.80
2019-03-17T14:53:02.486Z,61.50
2019-03-17T14:55:31.507Z,62.30
2019-03-17T14:58:00.585Z,62.10
2019-03-17T15:00:29.979Z,61.80
2019-03-17T15:02:59.059Z,61.50
2019-03-17T15:05:28.102Z,62.50
2019-03-17T15:07:56.875Z,61.90
2019-03-17T15:10:25.758Z,62.00
2019-03-17T15:12:54.878Z,62.60
2019-03-17T15:15:24.260Z,62.00
2019-03-17T15:17:53.349Z,61.60
2019-03-17T15:20:22.938Z,62.00
2019-03-17T15:22:52.043Z,62.20
2019-03-17T15:25:21.130Z,61.30
2019-03-17T15:27:50.912Z,61.50
2019-03-17T15:30:21.680Z,60.80
2019-03-17T15:32:51.157Z,61.20
2019-03-17T15:35:20.702Z,59.50
2019-03-17T15:37:50.200Z,60.10
2019-03-17T15:40:20.149Z,60.60
2019-03-17T15:42:48.934Z,59.60
2019-03-17T15:45:17.929Z,59.70
2019-03-17T15:47:47.231Z,62.30
2019-03-17T15:50:17.095Z,64.90
2019-03-17T15:52:46.044Z,66.10
2019-03-17T15:55:15.391Z,66.40
2019-03-17T15:57:44.586Z,67.90
2019-03-17T16:00:24.973Z,69.10
2019-03-17T16:02:49.163Z,72.20
2019-03-17T16:05:18.178Z,75.50
2019-03-17T16:07:47.504Z,76.50
2019-03-17T16:10:17.402Z,77.60
2019-03-17T16:12:47.078Z,76.90
2019-03-17T16:15:15.945Z,78.00
2019-03-17T16:17:45.127Z,77.90
2019-03-17T16:20:16.104Z,77.50
2019-03-17T16:22:45.323Z,77.60
2019-03-17T16:25:14.821Z,76.70
2019-03-17T16:27:43.951Z,77.00
2019-03-17T16:30:20.773Z,77.30
2019-03-17T16:32:49.572Z,77.20
2019-03-17T16:35:20.186Z,77.20
2019-03-17T16:37:49.560Z,76.80
2019-03-17T16:40:19.926Z,76.60
2019-03-17T16:42:49.298Z,76.80
2019-03-17T16:45:18.983Z,75.60
2019-03-17T16:47:47.844Z,75.80
2019-03-17T16:50:17.199Z,75.40
2019-03-17T16:52:47.209Z,75.60
2019-03-17T16:55:16.554Z,76.20
2019-03-17T16:57:45.554Z,75.90
2019-03-17T17:00:18.897Z,76.20
2019-03-17T17:02:47.115Z,76.20
2019-03-17T17:05:16.050Z,75.50
2019-03-17T17:07:45.361Z,74.90
2019-03-17T17:10:15.403Z,74.70
2019-03-17T17:12:44.474Z,74.50
2019-03-17T17:15:18.616Z,75.00
2019-03-17T17:17:47.793Z,74.80
2019-03-17T17:20:19.175Z,74.70
2019-03-17T17:22:48.188Z,74.40
2019-03-17T17:25:17.239Z,73.40
2019-03-17T17:27:46.075Z,73.20
2019-03-17T17:30:15.826Z,74.10
2019-03-17T17:32:45.084Z,72.50
2019-03-17T17:35:14.027Z,73.40
2019-03-17T17:37:43.043Z,73.70
2019-03-17T17:40:13.746Z,73.50
2019-03-17T17:42:42.861Z,74.00
2019-03-17T17:45:13.363Z,73.30
2019-03-17T17:47:42.179Z,73.30
2019-03-17T17:50:12.615Z,73.70
2019-03-17T17:52:41.461Z,72.80
2019-03-17T17:55:10.751Z,73.80
2019-03-17T17:57:39.859Z,73.60
2019-03-17T18:00:10.593Z,73.80
2019-03-17T18:02:39.419Z,73.40
2019-03-17T18:05:08.668Z,73.50
2019-03-17T18:07:37.432Z,73.70
2019-03-17T18:10:07.085Z,73.90
2019-03-17T18:12:36.502Z,73.10
2019-03-17T18:15:06.700Z,73.20
2019-03-17T18:17:35.785Z,73.70
2019-03-17T18:20:05.198Z,73.60
2019-03-17T18:22:33.951Z,73.30
2019-03-17T18:25:02.737Z,74.00
2019-03-17T18:27:31.496Z,74.30
2019-03-17T18:30:00.967Z,73.70
2019-03-17T18:32:29.731Z,73.80
2019-03-17T18:34:58.500Z,73.00
2019-03-17T18:37:27.584Z,71.90
2019-03-17T18:39:56.364Z,72.80
2019-03-17T18:42:32.952Z,72.30
2019-03-17T18:44:55.973Z,71.50
2019-03-17T18:47:25.082Z,72.60
2019-03-17T18:49:54.550Z,71.90
2019-03-17T18:52:23.689Z,71.50
2019-03-17T18:54:52.839Z,71.70
2019-03-17T18:57:21.939Z,71.70
2019-03-17T18:59:50.712Z,72.30
2019-03-17T19:02:19.500Z,72.00
2019-03-17T19:04:48.504Z,70.70
2019-03-17T19:07:17.272Z,70.60
2019-03-17T19:09:46.320Z,70.90
2019-03-17T19:12:15.420Z,71.50
2019-03-17T19:14:44.203Z,70.80
2019-03-17T19:17:13.143Z,71.40
2019-03-17T19:19:41.913Z,71.10
2019-03-17T19:22:10.708Z,71.70
2019-03-17T19:24:39.853Z,71.70
2019-03-17T19:27:08.636Z,71.50
2019-03-17T19:29:37.400Z,71.70
2019-03-17T19:32:06.241Z,71.90
2019-03-17T19:34:35.323Z,72.50
2019-03-17T19:37:04.127Z,72.30
2019-03-17T19:39:33.698Z,72.70
2019-03-17T19:42:02.889Z,72.80
2019-03-17T19:44:31.735Z,72.70
2019-03-17T19:47:01.174Z,72.50
2019-03-17T19:49:30.000Z,73.20
2019-03-17T19:51:59.090Z,73.10
2019-03-17T19:54:28.454Z,72.90
2019-03-17T19:56:57.590Z,72.40
2019-03-17T19:59:26.759Z,72.00
2019-03-17T20:01:56.171Z,72.20
2019-03-17T20:04:30.421Z,72.40
2019-03-17T20:06:55.774Z,71.80
2019-03-17T20:09:24.794Z,72.20
2019-03-17T20:11:53.577Z,72.30
2019-03-17T20:14:22.645Z,72.30
2019-03-17T20:16:51.666Z,71.50
2019-03-17T20:19:20.450Z,72.10
2019-03-17T20:21:49.523Z,71.70
2019-03-17T20:24:18.274Z,71.50
2019-03-17T20:26:47.544Z,71.00
2019-03-17T20:29:17.008Z,71.50
2019-03-17T20:31:45.833Z,70.90
2019-03-17T20:34:14.629Z,70.70
2019-03-17T20:36:43.393Z,71.00
2019-03-17T20:39:12.470Z,71.20
2019-03-17T20:41:41.240Z,71.00
2019-03-17T20:44:09.999Z,70.70
2019-03-17T20:46:38.769Z,70.90
2019-03-17T20:49:07.558Z,71.10
2019-03-17T20:51:36.392Z,71.50
2019-03-17T20:54:05.247Z,70.80
2019-03-17T20:56:34.017Z,70.70
2019-03-17T20:59:03.080Z,71.10
2019-03-17T21:01:31.855Z,71.00
2019-03-17T21:04:00.956Z,71.00
2019-03-17T21:06:29.751Z,70.80
2019-03-17T21:08:58.959Z,70.80
2019-03-17T21:11:27.721Z,70.60
2019-03-17T21:13:56.521Z,70.90
2019-03-17T21:16:25.680Z,70.90
2019-03-17T21:18:54.730Z,71.00
2019-03-17T21:21:23.558Z,70.70
2019-03-17T21:23:52.407Z,71.10
2019-03-17T21:26:21.183Z,70.40
2019-03-17T21:28:49.973Z,70.60
2019-03-17T21:31:18.810Z,71.30
2019-03-17T21:33:48.262Z,71.00
2019-03-17T21:36:17.013Z,70.60
2019-03-17T21:38:46.464Z,71.30
2019-03-17T21:41:15.239Z,71.10
2019-03-17T21:43:44.289Z,70.80
2019-03-17T21:46:13.435Z,71.30
2019-03-17T21:48:42.215Z,70.90
2019-03-17T21:51:11.335Z,70.80
2019-03-17T21:53:40.148Z,70.60
2019-03-17T21:56:09.292Z,70.20
2019-03-17T21:58:38.334Z,70.10
2019-03-17T22:01:07.113Z,70.60
2019-03-17T22:03:36.051Z,70.90
2019-03-17T22:06:04.972Z,70.90
2019-03-17T22:08:33.737Z,70.30
2019-03-17T22:11:02.847Z,70.20
2019-03-17T22:13:31.647Z,70.70
2019-03-17T22:16:00.412Z,70.50
2019-03-17T22:18:29.207Z,70.80
2019-03-17T22:20:58.403Z,70.40
2019-03-17T22:23:27.687Z,70.20
2019-03-17T22:25:56.734Z,70.20
2019-03-17T22:28:25.799Z,69.90
2019-03-17T22:30:54.574Z,70.00
2019-03-17T22:33:23.331Z,69.50
2019-03-17T22:35:52.105Z,70.00
2019-03-17T22:38:21.167Z,69.80
2019-03-17T22:40:49.934Z,69.30
2019-03-17T22:43:19.020Z,69.40
2019-03-17T22:45:47.872Z,69.50
2019-03-17T22:48:16.655Z,69.80
2019-03-17T22:50:45.810Z,70.00
2019-03-17T22:53:14.963Z,70.10
2019-03-17T22:55:44.229Z,70.00
2019-03-17T22:58:13.411Z,69.60
2019-03-17T23:00:43.566Z,69.60
2019-03-17T23:03:13.037Z,69.50
2019-03-17T23:05:42.220Z,70.00
2019-03-17T23:08:11.283Z,70.40
2019-03-17T23:10:40.056Z,71.00
2019-03-17T23:13:09.091Z,70.70
2019-03-17T23:15:38.129Z,70.30
2019-03-17T23:18:07.203Z,69.90
2019-03-17T23:20:35.966Z,71.00
2019-03-17T23:23:05.080Z,70.60
2019-03-17T23:25:33.867Z,70.20
2019-03-17T23:28:02.614Z,69.90
2019-03-17T23:30:31.385Z,69.80
2019-03-17T23:33:00.537Z,70.00
2019-03-17T23:35:29.325Z,70.00
2019-03-17T23:37:58.111Z,69.70
2019-03-17T23:40:27.033Z,69.50
2019-03-17T23:42:55.794Z,69.00
2019-03-17T23:45:24.554Z,69.30
2019-03-17T23:47:53.331Z,68.40
2019-03-17T23:50:22.478Z,68.80
2019-03-17T23:52:51.236Z,68.90
2019-03-17T23:55:20.343Z,68.90
2019-03-17T23:57:49.179Z,69.30
